createdAt,value
2022-10-05T00:01:00.104Z,10.10
2022-10-05T00:03:33.528Z,10.00
2022-10-05T00:06:01.092Z,9.90
2022-10-05T00:08:33.722Z,9.80
2022-10-05T00:11:01.603Z,9.80
2022-10-05T00:13:30.730Z,9.90
2022-10-05T00:16:16.303Z,9.70
2022-10-05T00:18:51.462Z,9.70
2022-10-05T00:21:25.245Z,9.70
2022-10-05T00:23:56.452Z,9.70
2022-10-05T00:26:32.244Z,9.60
2022-10-05T00:29:02.159Z,9.70
2022-10-05T00:31:33.258Z,9.60
2022-10-05T00:34:00.923Z,9.50
2022-10-05T00:36:28.455Z,9.60
2022-10-05T00:38:56.051Z,9.50
2022-10-05T00:41:50.428Z,9.60
2022-10-05T00:44:48.665Z,9.50
2022-10-05T00:47:52.692Z,9.50
2022-10-05T00:50:41.664Z,9.40
2022-10-05T00:53:15.076Z,9.40
2022-10-05T00:56:12.047Z,9.40
2022-10-05T00:58:48.621Z,9.30
2022-10-05T01:01:38.735Z,9.30
2022-10-05T01:04:33.629Z,9.40
2022-10-05T01:07:39.092Z,9.40
2022-10-05T01:10:06.707Z,9.40
2022-10-05T01:12:55.492Z,9.40
2022-10-05T01:15:51.067Z,9.50
2022-10-05T01:18:24.332Z,9.50
2022-10-05T01:21:10.911Z,9.60
2022-10-05T01:24:03.316Z,9.70
2022-10-05T01:26:59.217Z,9.60
2022-10-05T01:29:45.644Z,9.50
2022-10-05T01:32:25.976Z,9.30
2022-10-05T01:35:02.753Z,9.20
2022-10-05T01:38:17.129Z,9.10
2022-10-05T01:40:51.632Z,9.00
2022-10-05T01:43:25.398Z,8.90
2022-10-05T01:46:13.399Z,8.80
2022-10-05T01:49:08.508Z,8.70
2022-10-05T01:51:45.540Z,8.70
2022-10-05T01:54:31.966Z,8.70
2022-10-05T01:57:05.349Z,8.70
2022-10-05T02:00:07.493Z,8.70
2022-10-05T02:02:46.230Z,8.60
2022-10-05T02:05:16.544Z,8.60
2022-10-05T02:07:51.734Z,8.70
2022-10-05T02:10:19.313Z,8.70
2022-10-05T02:12:51.182Z,8.80
2022-10-05T02:15:32.363Z,8.80
2022-10-05T02:18:10.605Z,8.80
2022-10-05T02:20:42.329Z,8.80
2022-10-05T02:23:18.396Z,8.80
2022-10-05T02:25:49.372Z,8.80
2022-10-05T02:28:45.764Z,8.80
2022-10-05T02:31:24.082Z,8.80
2022-10-05T02:33:51.795Z,8.80
2022-10-05T02:36:34.484Z,8.90
2022-10-05T02:39:17.329Z,8.90
2022-10-05T02:41:54.714Z,8.80
2022-10-05T02:44:49.839Z,8.90
2022-10-05T02:47:46.628Z,9.00
2022-10-05T02:50:30.912Z,9.00
2022-10-05T02:53:27.059Z,9.00
2022-10-05T02:56:21.047Z,9.00
2022-10-05T02:59:06.788Z,9.10
2022-10-05T03:01:46.435Z,9.10
2022-10-05T03:04:58.776Z,9.10
2022-10-05T03:07:39.361Z,9.20
2022-10-05T03:10:13.562Z,9.20
2022-10-05T03:13:14.765Z,9.20
2022-10-05T03:15:53.799Z,9.20
2022-10-05T03:18:46.019Z,9.30
2022-10-05T03:21:33.267Z,9.30
2022-10-05T03:24:07.249Z,9.50
2022-10-05T03:26:55.855Z,9.50
2022-10-05T03:29:47.253Z,9.60
2022-10-05T03:32:17.835Z,9.70
2022-10-05T03:35:10.595Z,9.80
2022-10-05T03:37:57.052Z,9.90
2022-10-05T03:40:44.754Z,9.90
2022-10-05T03:43:21.476Z,9.90
2022-10-05T03:46:05.150Z,9.90
2022-10-05T03:49:06.784Z,9.90
2022-10-05T03:51:43.277Z,9.80
2022-10-05T03:54:23.990Z,9.70
2022-10-05T03:57:00.555Z,9.70
2022-10-05T03:59:39.050Z,9.60
2022-10-05T04:02:15.599Z,9.60
2022-10-05T04:05:12.521Z,9.60
2022-10-05T04:07:49.598Z,9.60
2022-10-05T04:10:25.749Z,9.50
2022-10-05T04:13:11.262Z,9.50
2022-10-05T04:16:14.589Z,9.50
2022-10-05T04:18:42.209Z,9.50
2022-10-05T04:21:28.153Z,9.50
2022-10-05T04:24:14.446Z,9.60
2022-10-05T04:26:45.606Z,9.60
2022-10-05T04:29:28.282Z,9.60
2022-10-05T04:32:35.430Z,9.60
2022-10-05T04:35:27.637Z,9.60
2022-10-05T04:38:19.315Z,9.60
2022-10-05T04:41:01.990Z,9.60
2022-10-05T04:43:54.536Z,9.70
2022-10-05T04:46:54.713Z,9.70
2022-10-05T04:50:05.878Z,9.70
2022-10-05T04:53:05.817Z,9.70
2022-10-05T04:55:53.631Z,9.70
2022-10-05T04:58:29.670Z,9.80
2022-10-05T05:01:15.632Z,9.80
2022-10-05T05:03:48.847Z,9.80
2022-10-05T05:06:17.938Z,9.80
2022-10-05T05:09:13.615Z,9.90
2022-10-05T05:12:03.654Z,9.90
2022-10-05T05:14:59.938Z,9.90
2022-10-05T05:17:33.224Z,9.90
2022-10-05T05:20:18.289Z,9.90
2022-10-05T05:23:23.649Z,9.90
2022-10-05T05:26:01.560Z,10.00
2022-10-05T05:28:32.198Z,10.00
2022-10-05T05:31:33.366Z,10.10
2022-10-05T05:34:27.473Z,10.10
2022-10-05T05:37:15.266Z,10.10
2022-10-05T05:40:14.027Z,10.10
2022-10-05T05:42:47.633Z,10.20
2022-10-05T05:45:29.683Z,10.20
2022-10-05T05:48:02.762Z,10.30
2022-10-05T05:50:56.536Z,10.30
2022-10-05T05:53:45.353Z,10.40
2022-10-05T05:56:15.924Z,10.40
2022-10-05T05:58:46.907Z,10.50
2022-10-05T06:01:35.471Z,10.60
2022-10-05T06:04:15.213Z,10.70
2022-10-05T06:06:51.434Z,10.70
2022-10-05T06:09:34.042Z,10.80
2022-10-05T06:12:21.882Z,10.80
2022-10-05T06:14:57.499Z,10.80
2022-10-05T06:17:39.017Z,10.80
2022-10-05T06:20:22.803Z,10.90
2022-10-05T06:22:52.221Z,11.00
2022-10-05T06:25:38.437Z,10.90
2022-10-05T06:28:19.529Z,11.00
2022-10-05T06:31:05.576Z,11.00
2022-10-05T06:33:45.669Z,11.10
2022-10-05T06:36:34.417Z,11.10
2022-10-05T06:39:16.884Z,11.10
2022-10-05T06:42:13.629Z,11.10
2022-10-05T06:45:16.965Z,11.20
2022-10-05T06:47:52.377Z,11.20
2022-10-05T06:50:43.001Z,11.30
2022-10-05T06:53:35.068Z,11.30
2022-10-05T06:56:32.818Z,11.30
2022-10-05T06:59:16.343Z,11.40
2022-10-05T07:01:57.549Z,11.60
2022-10-05T07:04:38.978Z,11.60
2022-10-05T07:07:17.401Z,11.70
2022-10-05T07:10:23.859Z,11.80
2022-10-05T07:12:54.371Z,11.80
2022-10-05T07:15:43.495Z,11.90
2022-10-05T07:18:20.242Z,11.90
2022-10-05T07:21:03.967Z,11.90
2022-10-05T07:23:59.561Z,11.90
2022-10-05T07:26:34.990Z,11.90
2022-10-05T07:29:27.656Z,11.80
2022-10-05T07:32:07.680Z,11.80
2022-10-05T07:35:02.986Z,11.90
2022-10-05T07:37:54.689Z,11.90
2022-10-05T07:40:44.069Z,11.90
2022-10-05T07:43:17.534Z,12.00
2022-10-05T07:45:57.291Z,12.10
2022-10-05T07:48:49.485Z,12.20
2022-10-05T07:51:41.245Z,12.20
2022-10-05T07:54:23.808Z,12.30
2022-10-05T07:57:21.583Z,12.40
2022-10-05T08:00:06.541Z,12.60
2022-10-05T08:03:11.438Z,12.70
2022-10-05T08:05:42.395Z,12.80
2022-10-05T08:08:31.184Z,12.80
2022-10-05T08:11:21.922Z,13.00
2022-10-05T08:13:59.641Z,13.00
2022-10-05T08:16:32.167Z,12.90
2022-10-05T08:19:20.522Z,13.00
2022-10-05T08:21:54.716Z,13.00
2022-10-05T08:24:58.394Z,13.10
2022-10-05T08:27:38.488Z,13.20
2022-10-05T08:30:11.096Z,13.30
2022-10-05T08:33:14.705Z,13.40
2022-10-05T08:35:51.692Z,13.30
2022-10-05T08:38:28.760Z,13.30
2022-10-05T08:41:17.659Z,13.30
2022-10-05T08:43:45.602Z,13.30
2022-10-05T08:46:30.148Z,13.30
2022-10-05T08:49:09.906Z,13.50
2022-10-05T08:51:53.780Z,13.70
2022-10-05T08:54:33.064Z,13.70
2022-10-05T08:57:03.401Z,13.80
2022-10-05T08:59:45.728Z,13.80
2022-10-05T09:02:59.404Z,13.90
2022-10-05T09:06:04.183Z,14.10
2022-10-05T09:08:34.875Z,14.20
2022-10-05T09:11:06.956Z,14.40
2022-10-05T09:13:56.997Z,14.40
2022-10-05T09:16:39.027Z,14.50
2022-10-05T09:19:43.956Z,14.70
2022-10-05T09:22:33.688Z,14.70
2022-10-05T09:25:23.511Z,14.70
2022-10-05T09:28:03.869Z,14.80
2022-10-05T09:30:52.750Z,14.90
2022-10-05T09:33:26.922Z,15.00
2022-10-05T09:36:19.184Z,15.20
2022-10-05T09:38:59.109Z,15.10
2022-10-05T09:42:03.685Z,15.10
2022-10-05T09:44:45.576Z,15.20
2022-10-05T09:47:34.214Z,15.40
2022-10-05T09:50:32.916Z,15.50
2022-10-05T09:53:25.165Z,15.30
2022-10-05T09:56:21.228Z,15.60
2022-10-05T09:59:13.800Z,15.90
2022-10-05T10:02:00.506Z,15.90
2022-10-05T10:05:08.861Z,16.10
2022-10-05T10:07:57.861Z,16.30
2022-10-05T10:11:00.700Z,16.40
2022-10-05T10:14:22.372Z,16.30
2022-10-05T10:17:46.509Z,16.80
2022-10-05T10:20:25.832Z,17.50
2022-10-05T10:23:11.656Z,18.00
2022-10-05T10:25:57.471Z,18.20
2022-10-05T10:28:40.198Z,18.50
2022-10-05T10:31:32.990Z,18.60
2022-10-05T10:34:14.434Z,18.80
2022-10-05T10:37:02.930Z,19.10
2022-10-05T10:40:05.765Z,19.00
2022-10-05T10:42:48.871Z,19.10
2022-10-05T10:45:54.280Z,19.50
2022-10-05T10:48:30.854Z,19.80
2022-10-05T10:51:09.848Z,20.00
2022-10-05T10:54:25.303Z,19.80
2022-10-05T10:57:13.595Z,19.70
2022-10-05T11:00:01.609Z,19.90
2022-10-05T11:02:44.308Z,20.20
2022-10-05T11:05:39.714Z,19.90
2022-10-05T11:08:35.445Z,19.90
2022-10-05T11:11:48.109Z,20.50
2022-10-05T11:14:21.754Z,20.90
2022-10-05T11:16:55.331Z,20.70
2022-10-05T11:20:04.773Z,20.50
2022-10-05T11:23:04.076Z,20.60
2022-10-05T11:25:57.402Z,20.50
2022-10-05T11:29:32.273Z,20.60
2022-10-05T11:32:59.336Z,20.60
2022-10-05T11:36:13.877Z,21.30
2022-10-05T11:39:07.463Z,23.00
2022-10-05T11:42:01.482Z,24.60
2022-10-05T11:44:51.837Z,26.30
2022-10-05T11:47:22.146Z,26.40
2022-10-05T11:49:53.616Z,25.60
2022-10-05T11:52:46.127Z,26.60
2022-10-05T11:55:36.064Z,27.20
2022-10-05T11:58:34.086Z,28.70
2022-10-05T12:01:17.673Z,29.30
2022-10-05T12:04:03.556Z,30.00
2022-10-05T12:07:04.619Z,29.90
2022-10-05T12:10:14.025Z,28.60
2022-10-05T12:13:05.069Z,28.40
2022-10-05T12:15:44.674Z,29.40
2022-10-05T12:18:20.842Z,27.80
2022-10-05T12:21:22.894Z,28.40
2022-10-05T12:24:01.845Z,29.40
2022-10-05T12:26:37.667Z,29.40
2022-10-05T12:29:25.730Z,29.10
2022-10-05T12:32:11.800Z,30.70
2022-10-05T12:35:14.620Z,31.60
2022-10-05T12:38:20.650Z,32.70
2022-10-05T12:41:16.069Z,33.40
2022-10-05T12:44:16.179Z,34.40
2022-10-05T12:46:46.537Z,33.70
2022-10-05T12:49:52.789Z,33.60
2022-10-05T12:52:26.174Z,33.10
2022-10-05T12:55:02.919Z,33.70
2022-10-05T12:58:05.444Z,34.20
2022-10-05T13:00:45.978Z,33.30
2022-10-05T13:03:28.036Z,33.30
2022-10-05T13:06:15.414Z,34.10
2022-10-05T13:08:56.505Z,35.40
2022-10-05T13:11:32.987Z,34.60
2022-10-05T13:14:29.354Z,34.00
2022-10-05T13:17:16.350Z,33.10
2022-10-05T13:19:51.687Z,33.30
2022-10-05T13:22:45.656Z,34.50
2022-10-05T13:25:37.138Z,32.20
2022-10-05T13:28:25.999Z,31.60
2022-10-05T13:31:05.629Z,31.30
2022-10-05T13:34:03.406Z,31.30
2022-10-05T13:36:44.848Z,30.90
2022-10-05T13:39:40.620Z,31.00
2022-10-05T13:42:26.842Z,30.30
2022-10-05T13:45:00.364Z,30.80
2022-10-05T13:47:37.794Z,32.20
2022-10-05T13:50:22.209Z,33.40
2022-10-05T13:53:08.183Z,33.00
2022-10-05T13:56:20.934Z,33.90
2022-10-05T13:59:00.256Z,34.40
2022-10-05T14:01:42.991Z,34.80
2022-10-05T14:04:27.463Z,34.80
2022-10-05T14:06:55.547Z,34.70
2022-10-05T14:09:34.132Z,35.50
2022-10-05T14:12:04.916Z,35.70
2022-10-05T14:14:48.869Z,35.20
2022-10-05T14:17:33.096Z,35.10
2022-10-05T14:20:19.600Z,35.30
2022-10-05T14:22:54.599Z,35.90
2022-10-05T14:25:24.921Z,35.70
2022-10-05T14:28:03.003Z,35.50
2022-10-05T14:30:34.129Z,34.70
2022-10-05T14:33:22.267Z,34.60
2022-10-05T14:35:59.827Z,35.00
2022-10-05T14:38:35.342Z,34.70
2022-10-05T14:41:08.768Z,35.20
2022-10-05T14:43:39.108Z,35.80
2022-10-05T14:46:23.187Z,36.10
2022-10-05T14:49:21.031Z,36.60
2022-10-05T14:51:50.972Z,35.60
2022-10-05T14:54:46.820Z,35.70
2022-10-05T14:57:44.459Z,34.90
2022-10-05T15:00:17.238Z,34.90
2022-10-05T15:03:22.584Z,35.10
2022-10-05T15:05:54.468Z,34.70
2022-10-05T15:08:22.038Z,34.70
2022-10-05T15:10:55.985Z,35.00
2022-10-05T15:13:50.347Z,35.10
2022-10-05T15:16:32.591Z,34.90
2022-10-05T15:19:12.275Z,34.40
2022-10-05T15:22:17.921Z,34.60
2022-10-05T15:24:51.653Z,35.10
2022-10-05T15:27:26.537Z,35.30
2022-10-05T15:30:09.233Z,34.30
2022-10-05T15:32:57.827Z,32.20
2022-10-05T15:35:43.636Z,29.40
2022-10-05T15:38:36.621Z,27.20
2022-10-05T15:41:39.634Z,25.70
2022-10-05T15:44:49.064Z,24.40
2022-10-05T15:47:51.868Z,23.50
2022-10-05T15:51:03.286Z,22.80
2022-10-05T15:54:14.729Z,22.30
2022-10-05T15:56:57.366Z,22.00
2022-10-05T15:59:49.711Z,21.60
2022-10-05T16:02:23.787Z,21.30
2022-10-05T16:05:10.451Z,21.10
2022-10-05T16:08:11.880Z,20.90
2022-10-05T16:10:45.359Z,20.70
2022-10-05T16:13:35.027Z,20.50
2022-10-05T16:16:42.307Z,20.40
2022-10-05T16:19:37.069Z,20.20
2022-10-05T16:22:43.458Z,20.00
2022-10-05T16:25:25.035Z,19.80
2022-10-05T16:27:57.976Z,19.60
2022-10-05T16:30:35.847Z,19.50
2022-10-05T16:33:29.093Z,19.50
2022-10-05T16:36:40.263Z,19.40
2022-10-05T16:39:17.541Z,19.20
2022-10-05T16:42:02.404Z,19.20
2022-10-05T16:44:41.924Z,19.10
2022-10-05T16:47:32.351Z,18.90
2022-10-05T16:50:25.139Z,18.80
2022-10-05T16:53:15.580Z,18.70
2022-10-05T16:55:49.808Z,18.80
2022-10-05T16:58:31.289Z,18.80
2022-10-05T17:01:22.717Z,18.90
2022-10-05T17:03:50.403Z,18.90
2022-10-05T17:06:36.938Z,18.80
2022-10-05T17:09:38.369Z,18.70
2022-10-05T17:12:42.307Z,18.50
2022-10-05T17:15:33.503Z,18.30
2022-10-05T17:18:28.405Z,18.30
2022-10-05T17:21:02.590Z,18.20
2022-10-05T17:23:42.887Z,18.10
2022-10-05T17:26:52.996Z,18.00
2022-10-05T17:29:24.846Z,17.90
2022-10-05T17:32:02.512Z,17.70
2022-10-05T17:34:34.252Z,17.60
2022-10-05T17:37:39.205Z,17.60
2022-10-05T17:40:59.997Z,17.50
2022-10-05T17:43:31.734Z,17.60
2022-10-05T17:46:07.689Z,17.60
2022-10-05T17:48:38.870Z,17.60
2022-10-05T17:51:48.328Z,17.60
2022-10-05T17:54:37.182Z,17.40
2022-10-05T17:57:04.698Z,17.50
2022-10-05T17:59:48.997Z,17.50
2022-10-05T18:02:39.545Z,17.40
2022-10-05T18:05:12.682Z,17.40
2022-10-05T18:07:49.613Z,17.30
2022-10-05T18:10:29.724Z,17.30
2022-10-05T18:13:02.902Z,17.20
2022-10-05T18:15:31.107Z,17.10
2022-10-05T18:18:32.025Z,17.10
2022-10-05T18:21:14.996Z,17.00
2022-10-05T18:24:09.167Z,16.90
2022-10-05T18:27:02.137Z,16.80
2022-10-05T18:29:54.342Z,16.60
2022-10-05T18:32:43.471Z,16.60
2022-10-05T18:35:52.407Z,16.50
2022-10-05T18:38:25.914Z,16.40
2022-10-05T18:41:15.901Z,16.40
2022-10-05T18:44:00.509Z,16.40
2022-10-05T18:46:49.836Z,16.30
2022-10-05T18:49:38.137Z,16.20
2022-10-05T18:52:36.440Z,16.10
2022-10-05T18:55:57.370Z,16.10
2022-10-05T18:58:43.645Z,16.00
2022-10-05T19:01:48.795Z,15.90
2022-10-05T19:04:37.082Z,15.90
2022-10-05T19:07:45.602Z,15.80
2022-10-05T19:10:50.556Z,15.80
2022-10-05T19:13:50.918Z,15.80
2022-10-05T19:16:36.348Z,15.70
2022-10-05T19:19:09.809Z,15.70
2022-10-05T19:21:45.352Z,15.70
2022-10-05T19:24:31.280Z,15.70
2022-10-05T19:27:16.343Z,15.60
2022-10-05T19:30:15.460Z,15.50
2022-10-05T19:33:07.487Z,15.50
2022-10-05T19:36:00.736Z,15.50
2022-10-05T19:39:01.890Z,15.40
2022-10-05T19:41:54.303Z,15.50
2022-10-05T19:44:38.403Z,15.40
2022-10-05T19:47:17.945Z,15.40
2022-10-05T19:49:55.297Z,15.30
2022-10-05T19:52:40.743Z,15.30
2022-10-05T19:55:20.418Z,15.30
2022-10-05T19:58:01.719Z,15.30
2022-10-05T20:00:32.652Z,15.30
2022-10-05T20:03:19.340Z,15.20
2022-10-05T20:05:48.199Z,15.10
2022-10-05T20:08:20.261Z,15.10
2022-10-05T20:11:27.850Z,15.00
2022-10-05T20:13:55.391Z,15.00
2022-10-05T20:19:54.615Z,15.10
2022-10-05T20:22:28.857Z,15.20
2022-10-05T20:25:00.082Z,15.40
2022-10-05T20:27:37.979Z,15.50
2022-10-05T20:30:07.499Z,15.50
2022-10-05T20:32:35.067Z,15.50
2022-10-05T20:35:02.845Z,15.40
2022-10-05T20:37:30.529Z,15.50
2022-10-05T20:39:58.396Z,15.50
2022-10-05T20:42:26.649Z,15.50
2022-10-05T20:44:56.895Z,15.60
2022-10-05T20:47:25.765Z,15.70
2022-10-05T20:49:54.533Z,15.70
2022-10-05T20:52:23.209Z,15.60
2022-10-05T20:54:53.803Z,15.60
2022-10-05T20:57:25.131Z,15.50
2022-10-05T20:59:52.937Z,15.50
2022-10-05T21:02:20.578Z,15.50
2022-10-05T21:04:50.801Z,15.50
2022-10-05T21:07:20.912Z,15.40
2022-10-05T21:09:48.576Z,15.40
2022-10-05T21:12:19.089Z,15.40
2022-10-05T21:14:47.395Z,15.30
2022-10-05T21:17:15.010Z,15.20
2022-10-05T21:19:42.577Z,15.00
2022-10-05T21:22:10.521Z,15.20
2022-10-05T21:24:40.691Z,15.40
2022-10-05T21:27:11.382Z,15.50
2022-10-05T21:29:40.995Z,15.60
2022-10-05T21:32:11.353Z,15.80
2022-10-05T21:34:40.822Z,15.70
2022-10-05T21:37:08.997Z,15.80
2022-10-05T21:39:36.797Z,15.90
2022-10-05T21:42:04.692Z,15.90
2022-10-05T21:44:32.385Z,15.90
2022-10-05T21:47:01.280Z,15.80
2022-10-05T21:49:29.132Z,15.70
2022-10-05T21:51:56.931Z,15.50
2022-10-05T21:54:24.843Z,15.30
2022-10-05T21:56:55.806Z,15.00
2022-10-05T21:59:29.091Z,14.90
2022-10-05T22:01:56.741Z,15.00
2022-10-05T22:04:24.787Z,14.90
2022-10-05T22:06:52.711Z,15.00
2022-10-05T22:09:20.285Z,15.10
2022-10-05T22:11:49.109Z,15.20
2022-10-05T22:14:17.028Z,15.20
2022-10-05T22:16:45.017Z,15.20
2022-10-05T22:19:19.976Z,15.30
2022-10-05T22:21:47.537Z,15.30
2022-10-05T22:24:15.149Z,15.30
2022-10-05T22:26:45.880Z,15.30
2022-10-05T22:29:15.952Z,15.30
2022-10-05T22:31:45.155Z,15.40
2022-10-05T22:34:13.665Z,15.50
2022-10-05T22:36:41.826Z,15.30
2022-10-05T22:39:10.915Z,15.30
2022-10-05T22:41:38.481Z,15.20
2022-10-05T22:44:06.713Z,14.90
2022-10-05T22:46:34.598Z,14.80
2022-10-05T22:49:02.314Z,14.70
2022-10-05T22:51:29.853Z,14.60
2022-10-05T22:53:57.563Z,14.60
2022-10-05T22:56:26.054Z,14.60
2022-10-05T22:58:55.020Z,14.70
2022-10-05T23:01:27.007Z,14.80
2022-10-05T23:03:57.120Z,14.90
2022-10-05T23:06:26.524Z,14.80
2022-10-05T23:08:54.741Z,14.80
2022-10-05T23:11:26.918Z,14.70
2022-10-05T23:13:56.883Z,14.60
2022-10-05T23:16:26.766Z,14.70
2022-10-05T23:18:54.950Z,14.80
2022-10-05T23:21:24.104Z,14.80
2022-10-05T23:23:51.653Z,14.90
2022-10-05T23:26:22.130Z,15.00
2022-10-05T23:28:50.174Z,15.10
2022-10-05T23:31:30.078Z,15.20
2022-10-05T23:33:57.654Z,15.20
2022-10-05T23:36:28.068Z,15.10
2022-10-05T23:38:55.596Z,15.10
2022-10-05T23:41:26.176Z,15.00
2022-10-05T23:43:55.133Z,15.00
2022-10-05T23:46:23.033Z,15.00
2022-10-05T23:48:50.687Z,14.90
2022-10-05T23:51:18.644Z,14.80
2022-10-05T23:53:46.225Z,14.90
2022-10-05T23:56:13.918Z,14.90
2022-10-05T23:58:41.664Z,15.00
